sensor_id;sensor_type;location;lat;lon;timestamp;P1;durP1;ratioP1;P2;durP2;ratioP2
7375;SDS011;3728;42.266;24.944;2023-02-08T00:01:17;11.83;;;7.30;;
7375;SDS011;3728;42.266;24.944;2023-02-08T00:03:52;11.93;;;8.00;;
7375;SDS011;3728;42.266;24.944;2023-02-08T00:06:20;10.13;;;7.53;;
7375;SDS011;3728;42.266;24.944;2023-02-08T00:08:47;8.87;;;6.80;;
7375;SDS011;3728;42.266;24.944;2023-02-08T00:11:15;12.10;;;7.83;;
7375;SDS011;3728;42.266;24.944;2023-02-08T00:13:43;14.83;;;8.10;;
7375;SDS011;3728;42.266;24.944;2023-02-08T00:16:11;13.73;;;8.30;;
7375;SDS011;3728;42.266;24.944;2023-02-08T00:18:40;12.40;;;8.77;;
7375;SDS011;3728;42.266;24.944;2023-02-08T00:21:09;11.27;;;7.57;;
7375;SDS011;3728;42.266;24.944;2023-02-08T00:23:38;10.50;;;7.20;;
7375;SDS011;3728;42.266;24.944;2023-02-08T00:26:06;11.70;;;7.47;;
7375;SDS011;3728;42.266;24.944;2023-02-08T00:28:34;9.43;;;7.07;;
7375;SDS011;3728;42.266;24.944;2023-02-08T00:31:02;9.47;;;6.90;;
7375;SDS011;3728;42.266;24.944;2023-02-08T00:33:31;12.33;;;7.20;;
7375;SDS011;3728;42.266;24.944;2023-02-08T00:35:59;12.50;;;7.93;;
7375;SDS011;3728;42.266;24.944;2023-02-08T00:38:28;11.03;;;7.90;;
7375;SDS011;3728;42.266;24.944;2023-02-08T00:40:56;11.23;;;7.50;;
7375;SDS011;3728;42.266;24.944;2023-02-08T00:43:24;12.77;;;7.83;;
7375;SDS011;3728;42.266;24.944;2023-02-08T00:45:54;10.57;;;6.77;;
7375;SDS011;3728;42.266;24.944;2023-02-08T00:48:24;9.73;;;6.70;;
7375;SDS011;3728;42.266;24.944;2023-02-08T00:53:48;8.80;;;6.67;;
7375;SDS011;3728;42.266;24.944;2023-02-08T00:56:15;10.00;;;7.50;;
7375;SDS011;3728;42.266;24.944;2023-02-08T00:58:43;12.37;;;8.17;;
7375;SDS011;3728;42.266;24.944;2023-02-08T01:01:11;13.57;;;8.50;;
7375;SDS011;3728;42.266;24.944;2023-02-08T01:03:40;13.80;;;8.73;;
7375;SDS011;3728;42.266;24.944;2023-02-08T01:06:14;14.97;;;9.53;;
7375;SDS011;3728;42.266;24.944;2023-02-08T01:08:43;11.87;;;8.17;;
7375;SDS011;3728;42.266;24.944;2023-02-08T01:11:13;13.20;;;8.23;;
7375;SDS011;3728;42.266;24.944;2023-02-08T01:13:48;13.17;;;9.03;;
7375;SDS011;3728;42.266;24.944;2023-02-08T01:16:22;18.77;;;9.77;;
7375;SDS011;3728;42.266;24.944;2023-02-08T01:18:54;15.43;;;9.37;;
7375;SDS011;3728;42.266;24.944;2023-02-08T01:21:26;16.30;;;10.50;;
7375;SDS011;3728;42.266;24.944;2023-02-08T01:24:03;15.00;;;9.10;;
7375;SDS011;3728;42.266;24.944;2023-02-08T01:26:32;13.17;;;9.40;;
7375;SDS011;3728;42.266;24.944;2023-02-08T01:28:59;11.63;;;8.30;;
7375;SDS011;3728;42.266;24.944;2023-02-08T01:31:29;12.70;;;9.23;;
7375;SDS011;3728;42.266;24.944;2023-02-08T01:34:00;14.30;;;8.93;;
7375;SDS011;3728;42.266;24.944;2023-02-08T01:36:29;14.83;;;9.50;;
7375;SDS011;3728;42.266;24.944;2023-02-08T01:38:58;15.77;;;10.13;;
7375;SDS011;3728;42.266;24.944;2023-02-08T01:41:27;16.63;;;10.47;;
7375;SDS011;3728;42.266;24.944;2023-02-08T01:46:41;21.03;;;12.67;;
7375;SDS011;3728;42.266;24.944;2023-02-08T01:49:22;20.03;;;10.77;;
7375;SDS011;3728;42.266;24.944;2023-02-08T01:51:59;16.03;;;10.20;;
7375;SDS011;3728;42.266;24.944;2023-02-08T01:57:21;16.13;;;10.27;;
7375;SDS011;3728;42.266;24.944;2023-02-08T01:59:55;16.17;;;10.00;;
7375;SDS011;3728;42.266;24.944;2023-02-08T02:02:50;15.70;;;10.50;;
7375;SDS011;3728;42.266;24.944;2023-02-08T02:05:22;16.50;;;10.57;;
7375;SDS011;3728;42.266;24.944;2023-02-08T02:07:58;18.33;;;11.30;;
7375;SDS011;3728;42.266;24.944;2023-02-08T02:10:27;16.83;;;11.30;;
7375;SDS011;3728;42.266;24.944;2023-02-08T02:13:01;18.03;;;10.70;;
7375;SDS011;3728;42.266;24.944;2023-02-08T02:15:34;18.50;;;12.30;;
7375;SDS011;3728;42.266;24.944;2023-02-08T02:18:02;20.80;;;13.03;;
7375;SDS011;3728;42.266;24.944;2023-02-08T02:33:13;22.57;;;12.20;;
7375;SDS011;3728;42.266;24.944;2023-02-08T02:45:06;18.37;;;11.33;;
7375;SDS011;3728;42.266;24.944;2023-02-08T02:47:40;19.57;;;12.77;;
7375;SDS011;3728;42.266;24.944;2023-02-08T02:50:36;16.83;;;11.77;;
7375;SDS011;3728;42.266;24.944;2023-02-08T02:53:30;20.27;;;12.60;;
7375;SDS011;3728;42.266;24.944;2023-02-08T02:56:20;20.30;;;13.50;;
7375;SDS011;3728;42.266;24.944;2023-02-08T02:58:58;21.83;;;13.33;;
7375;SDS011;3728;42.266;24.944;2023-02-08T03:01:31;23.93;;;13.33;;
7375;SDS011;3728;42.266;24.944;2023-02-08T03:03:59;20.00;;;12.90;;
7375;SDS011;3728;42.266;24.944;2023-02-08T03:15:39;26.50;;;15.77;;
7375;SDS011;3728;42.266;24.944;2023-02-08T03:21:01;33.20;;;17.87;;
7375;SDS011;3728;42.266;24.944;2023-02-08T03:33:05;20.33;;;13.10;;
7375;SDS011;3728;42.266;24.944;2023-02-08T03:35:54;20.70;;;13.17;;
7375;SDS011;3728;42.266;24.944;2023-02-08T03:38:48;20.13;;;13.63;;
7375;SDS011;3728;42.266;24.944;2023-02-08T03:41:19;18.90;;;12.60;;
7375;SDS011;3728;42.266;24.944;2023-02-08T03:43:59;26.90;;;16.10;;
7375;SDS011;3728;42.266;24.944;2023-02-08T03:46:47;21.93;;;14.13;;
7375;SDS011;3728;42.266;24.944;2023-02-08T03:49:21;24.03;;;13.37;;
7375;SDS011;3728;42.266;24.944;2023-02-08T03:51:55;18.57;;;12.10;;
7375;SDS011;3728;42.266;24.944;2023-02-08T03:54:27;17.40;;;11.97;;
7375;SDS011;3728;42.266;24.944;2023-02-08T03:57:09;19.53;;;11.90;;
7375;SDS011;3728;42.266;24.944;2023-02-08T03:59:56;23.00;;;13.27;;
7375;SDS011;3728;42.266;24.944;2023-02-08T04:02:38;23.80;;;13.83;;
7375;SDS011;3728;42.266;24.944;2023-02-08T04:05:27;19.90;;;12.77;;
7375;SDS011;3728;42.266;24.944;2023-02-08T04:07:55;20.50;;;13.57;;
7375;SDS011;3728;42.266;24.944;2023-02-08T04:10:23;25.47;;;14.40;;
7375;SDS011;3728;42.266;24.944;2023-02-08T04:12:51;23.07;;;14.57;;
7375;SDS011;3728;42.266;24.944;2023-02-08T04:15:18;28.03;;;16.03;;
7375;SDS011;3728;42.266;24.944;2023-02-08T04:17:47;23.27;;;13.57;;
7375;SDS011;3728;42.266;24.944;2023-02-08T04:20:14;23.13;;;13.77;;
7375;SDS011;3728;42.266;24.944;2023-02-08T04:22:42;22.17;;;12.90;;
7375;SDS011;3728;42.266;24.944;2023-02-08T04:25:09;21.13;;;13.67;;
7375;SDS011;3728;42.266;24.944;2023-02-08T04:27:37;22.20;;;13.00;;
7375;SDS011;3728;42.266;24.944;2023-02-08T04:30:05;20.70;;;13.63;;
7375;SDS011;3728;42.266;24.944;2023-02-08T04:32:32;19.53;;;13.03;;
7375;SDS011;3728;42.266;24.944;2023-02-08T04:35:00;20.60;;;12.60;;
7375;SDS011;3728;42.266;24.944;2023-02-08T04:37:27;21.77;;;14.20;;
7375;SDS011;3728;42.266;24.944;2023-02-08T04:39:55;23.37;;;14.03;;
7375;SDS011;3728;42.266;24.944;2023-02-08T04:42:22;21.57;;;14.00;;
7375;SDS011;3728;42.266;24.944;2023-02-08T04:44:50;24.23;;;14.80;;
7375;SDS011;3728;42.266;24.944;2023-02-08T04:47:17;22.77;;;14.13;;
7375;SDS011;3728;42.266;24.944;2023-02-08T04:49:45;22.20;;;14.27;;
7375;SDS011;3728;42.266;24.944;2023-02-08T04:52:12;25.93;;;14.13;;
7375;SDS011;3728;42.266;24.944;2023-02-08T04:54:40;30.27;;;18.77;;
7375;SDS011;3728;42.266;24.944;2023-02-08T04:57:09;28.27;;;15.57;;
7375;SDS011;3728;42.266;24.944;2023-02-08T04:59:39;23.27;;;13.50;;
7375;SDS011;3728;42.266;24.944;2023-02-08T05:02:07;21.23;;;13.87;;
7375;SDS011;3728;42.266;24.944;2023-02-08T05:04:35;25.77;;;14.50;;
7375;SDS011;3728;42.266;24.944;2023-02-08T05:07:02;21.40;;;13.53;;
7375;SDS011;3728;42.266;24.944;2023-02-08T05:09:30;19.57;;;13.47;;
7375;SDS011;3728;42.266;24.944;2023-02-08T05:11:58;20.70;;;13.13;;
7375;SDS011;3728;42.266;24.944;2023-02-08T05:14:25;26.70;;;15.73;;
7375;SDS011;3728;42.266;24.944;2023-02-08T05:16:58;24.67;;;16.23;;
7375;SDS011;3728;42.266;24.944;2023-02-08T05:19:26;24.97;;;15.07;;
7375;SDS011;3728;42.266;24.944;2023-02-08T05:21:53;22.50;;;13.50;;
7375;SDS011;3728;42.266;24.944;2023-02-08T05:24:21;22.43;;;13.63;;
7375;SDS011;3728;42.266;24.944;2023-02-08T05:26:49;21.20;;;14.20;;
7375;SDS011;3728;42.266;24.944;2023-02-08T05:29:18;32.53;;;15.73;;
7375;SDS011;3728;42.266;24.944;2023-02-08T05:31:46;24.13;;;15.50;;
7375;SDS011;3728;42.266;24.944;2023-02-08T05:34:14;25.30;;;15.17;;
7375;SDS011;3728;42.266;24.944;2023-02-08T05:36:41;155.07;;;58.97;;
7375;SDS011;3728;42.266;24.944;2023-02-08T05:39:09;58.43;;;28.20;;
7375;SDS011;3728;42.266;24.944;2023-02-08T05:41:36;57.73;;;31.43;;
7375;SDS011;3728;42.266;24.944;2023-02-08T05:44:04;138.30;;;53.43;;
7375;SDS011;3728;42.266;24.944;2023-02-08T05:46:31;64.97;;;33.93;;
7375;SDS011;3728;42.266;24.944;2023-02-08T05:49:01;31.47;;;18.83;;
7375;SDS011;3728;42.266;24.944;2023-02-08T05:51:29;27.47;;;16.53;;
7375;SDS011;3728;42.266;24.944;2023-02-08T05:53:58;26.80;;;16.60;;
7375;SDS011;3728;42.266;24.944;2023-02-08T05:56:25;25.50;;;15.07;;
7375;SDS011;3728;42.266;24.944;2023-02-08T05:58:54;25.73;;;16.73;;
7375;SDS011;3728;42.266;24.944;2023-02-08T06:01:25;27.03;;;16.20;;
7375;SDS011;3728;42.266;24.944;2023-02-08T06:03:53;41.93;;;21.10;;
7375;SDS011;3728;42.266;24.944;2023-02-08T06:06:21;31.83;;;17.97;;
7375;SDS011;3728;42.266;24.944;2023-02-08T06:08:48;28.63;;;16.00;;
7375;SDS011;3728;42.266;24.944;2023-02-08T06:11:17;28.10;;;16.27;;
7375;SDS011;3728;42.266;24.944;2023-02-08T06:13:45;30.40;;;16.93;;
7375;SDS011;3728;42.266;24.944;2023-02-08T06:16:13;38.57;;;19.27;;
7375;SDS011;3728;42.266;24.944;2023-02-08T06:18:44;32.43;;;19.93;;
7375;SDS011;3728;42.266;24.944;2023-02-08T06:21:12;25.20;;;15.70;;
7375;SDS011;3728;42.266;24.944;2023-02-08T06:23:41;27.73;;;15.97;;
7375;SDS011;3728;42.266;24.944;2023-02-08T06:26:08;31.33;;;18.53;;
7375;SDS011;3728;42.266;24.944;2023-02-08T06:28:36;34.13;;;18.63;;
7375;SDS011;3728;42.266;24.944;2023-02-08T06:31:04;31.43;;;17.13;;
7375;SDS011;3728;42.266;24.944;2023-02-08T06:33:33;29.90;;;17.73;;
7375;SDS011;3728;42.266;24.944;2023-02-08T06:36:01;43.37;;;23.17;;
7375;SDS011;3728;42.266;24.944;2023-02-08T06:38:30;28.67;;;17.60;;
7375;SDS011;3728;42.266;24.944;2023-02-08T06:40:57;32.50;;;17.73;;
7375;SDS011;3728;42.266;24.944;2023-02-08T06:43:25;27.43;;;16.57;;
7375;SDS011;3728;42.266;24.944;2023-02-08T06:45:52;35.93;;;18.43;;
7375;SDS011;3728;42.266;24.944;2023-02-08T06:48:20;37.87;;;19.07;;
7375;SDS011;3728;42.266;24.944;2023-02-08T06:50:47;70.20;;;31.17;;
7375;SDS011;3728;42.266;24.944;2023-02-08T06:53:18;37.73;;;20.07;;
7375;SDS011;3728;42.266;24.944;2023-02-08T06:55:49;51.97;;;26.70;;
7375;SDS011;3728;42.266;24.944;2023-02-08T06:58:18;61.13;;;29.43;;
7375;SDS011;3728;42.266;24.944;2023-02-08T07:00:46;32.70;;;19.77;;
7375;SDS011;3728;42.266;24.944;2023-02-08T07:03:14;40.13;;;22.20;;
7375;SDS011;3728;42.266;24.944;2023-02-08T07:05:43;33.33;;;20.80;;
7375;SDS011;3728;42.266;24.944;2023-02-08T07:08:30;41.47;;;21.40;;
7375;SDS011;3728;42.266;24.944;2023-02-08T07:10:58;38.70;;;22.33;;
7375;SDS011;3728;42.266;24.944;2023-02-08T07:13:30;26.43;;;17.37;;
7375;SDS011;3728;42.266;24.944;2023-02-08T07:15:58;29.40;;;17.90;;
7375;SDS011;3728;42.266;24.944;2023-02-08T07:18:25;25.17;;;15.93;;
7375;SDS011;3728;42.266;24.944;2023-02-08T07:20:53;34.83;;;20.07;;
7375;SDS011;3728;42.266;24.944;2023-02-08T07:23:20;31.13;;;19.27;;
7375;SDS011;3728;42.266;24.944;2023-02-08T07:25:55;36.67;;;22.40;;
7375;SDS011;3728;42.266;24.944;2023-02-08T07:28:34;41.30;;;24.20;;
7375;SDS011;3728;42.266;24.944;2023-02-08T07:31:08;44.83;;;24.47;;
7375;SDS011;3728;42.266;24.944;2023-02-08T07:33:41;31.73;;;18.37;;
7375;SDS011;3728;42.266;24.944;2023-02-08T07:36:09;24.27;;;15.80;;
7375;SDS011;3728;42.266;24.944;2023-02-08T07:38:37;22.37;;;14.33;;
7375;SDS011;3728;42.266;24.944;2023-02-08T07:41:09;35.97;;;19.83;;
7375;SDS011;3728;42.266;24.944;2023-02-08T07:43:39;29.23;;;17.27;;
7375;SDS011;3728;42.266;24.944;2023-02-08T07:46:13;23.33;;;13.93;;
7375;SDS011;3728;42.266;24.944;2023-02-08T07:48:43;27.13;;;18.20;;
7375;SDS011;3728;42.266;24.944;2023-02-08T07:51:11;25.23;;;17.50;;
7375;SDS011;3728;42.266;24.944;2023-02-08T07:53:39;31.33;;;19.93;;
7375;SDS011;3728;42.266;24.944;2023-02-08T07:56:07;28.00;;;16.33;;
7375;SDS011;3728;42.266;24.944;2023-02-08T07:58:36;21.07;;;14.70;;
7375;SDS011;3728;42.266;24.944;2023-02-08T08:01:04;32.20;;;17.10;;
7375;SDS011;3728;42.266;24.944;2023-02-08T08:03:47;29.70;;;17.13;;
7375;SDS011;3728;42.266;24.944;2023-02-08T08:06:16;25.03;;;15.43;;
7375;SDS011;3728;42.266;24.944;2023-02-08T08:08:45;21.67;;;14.10;;
7375;SDS011;3728;42.266;24.944;2023-02-08T08:11:14;19.33;;;12.63;;
7375;SDS011;3728;42.266;24.944;2023-02-08T08:13:42;22.60;;;12.93;;
7375;SDS011;3728;42.266;24.944;2023-02-08T08:16:10;28.33;;;15.40;;
7375;SDS011;3728;42.266;24.944;2023-02-08T08:18:38;25.30;;;13.00;;
7375;SDS011;3728;42.266;24.944;2023-02-08T08:21:07;19.87;;;11.63;;
7375;SDS011;3728;42.266;24.944;2023-02-08T08:23:34;25.03;;;14.17;;
7375;SDS011;3728;42.266;24.944;2023-02-08T08:26:07;29.27;;;14.40;;
7375;SDS011;3728;42.266;24.944;2023-02-08T08:28:46;21.37;;;14.37;;
7375;SDS011;3728;42.266;24.944;2023-02-08T08:31:16;19.33;;;12.70;;
7375;SDS011;3728;42.266;24.944;2023-02-08T08:33:47;20.20;;;13.40;;
7375;SDS011;3728;42.266;24.944;2023-02-08T08:36:15;19.97;;;12.53;;
7375;SDS011;3728;42.266;24.944;2023-02-08T08:38:43;23.57;;;14.17;;
7375;SDS011;3728;42.266;24.944;2023-02-08T08:41:11;23.20;;;12.57;;
7375;SDS011;3728;42.266;24.944;2023-02-08T08:43:43;16.77;;;10.93;;
7375;SDS011;3728;42.266;24.944;2023-02-08T08:46:11;23.70;;;12.70;;
7375;SDS011;3728;42.266;24.944;2023-02-08T08:48:40;17.30;;;10.93;;
7375;SDS011;3728;42.266;24.944;2023-02-08T08:51:08;20.80;;;11.43;;
7375;SDS011;3728;42.266;24.944;2023-02-08T08:53:35;17.47;;;11.57;;
7375;SDS011;3728;42.266;24.944;2023-02-08T08:56:03;13.93;;;9.37;;
7375;SDS011;3728;42.266;24.944;2023-02-08T08:58:32;13.93;;;10.03;;
7375;SDS011;3728;42.266;24.944;2023-02-08T09:00:59;20.13;;;9.97;;
7375;SDS011;3728;42.266;24.944;2023-02-08T09:03:28;17.87;;;10.17;;
7375;SDS011;3728;42.266;24.944;2023-02-08T09:05:55;16.10;;;10.10;;
7375;SDS011;3728;42.266;24.944;2023-02-08T09:08:23;17.83;;;9.90;;
7375;SDS011;3728;42.266;24.944;2023-02-08T09:10:51;15.73;;;10.13;;
7375;SDS011;3728;42.266;24.944;2023-02-08T09:13:18;13.07;;;8.93;;
7375;SDS011;3728;42.266;24.944;2023-02-08T09:15:47;14.10;;;9.47;;
7375;SDS011;3728;42.266;24.944;2023-02-08T09:18:15;15.13;;;9.73;;
7375;SDS011;3728;42.266;24.944;2023-02-08T09:20:43;12.50;;;8.77;;
7375;SDS011;3728;42.266;24.944;2023-02-08T09:23:11;11.87;;;8.83;;
7375;SDS011;3728;42.266;24.944;2023-02-08T09:25:39;22.03;;;10.13;;
7375;SDS011;3728;42.266;24.944;2023-02-08T09:28:07;21.67;;;11.00;;
7375;SDS011;3728;42.266;24.944;2023-02-08T09:30:35;16.07;;;9.97;;
7375;SDS011;3728;42.266;24.944;2023-02-08T09:33:02;13.07;;;9.70;;
7375;SDS011;3728;42.266;24.944;2023-02-08T09:35:32;12.93;;;8.90;;
7375;SDS011;3728;42.266;24.944;2023-02-08T09:38:00;12.17;;;8.77;;
7375;SDS011;3728;42.266;24.944;2023-02-08T09:40:34;17.53;;;10.10;;
7375;SDS011;3728;42.266;24.944;2023-02-08T09:46:37;17.03;;;11.63;;
7375;SDS011;3728;42.266;24.944;2023-02-08T09:49:10;17.07;;;10.77;;
7375;SDS011;3728;42.266;24.944;2023-02-08T09:51:46;15.80;;;8.50;;
7375;SDS011;3728;42.266;24.944;2023-02-08T09:54:46;12.40;;;8.97;;
7375;SDS011;3728;42.266;24.944;2023-02-08T09:57:23;10.20;;;7.90;;
7375;SDS011;3728;42.266;24.944;2023-02-08T09:59:59;13.93;;;9.53;;
7375;SDS011;3728;42.266;24.944;2023-02-08T10:02:32;14.33;;;10.20;;
7375;SDS011;3728;42.266;24.944;2023-02-08T10:05:09;19.03;;;11.33;;
7375;SDS011;3728;42.266;24.944;2023-02-08T10:07:40;14.33;;;9.63;;
7375;SDS011;3728;42.266;24.944;2023-02-08T10:10:18;12.07;;;9.23;;
7375;SDS011;3728;42.266;24.944;2023-02-08T10:13:02;11.80;;;8.23;;
7375;SDS011;3728;42.266;24.944;2023-02-08T10:22:14;13.87;;;9.77;;
7375;SDS011;3728;42.266;24.944;2023-02-08T10:25:12;13.87;;;9.10;;
7375;SDS011;3728;42.266;24.944;2023-02-08T10:31:01;12.53;;;7.93;;
7375;SDS011;3728;42.266;24.944;2023-02-08T10:36:58;10.90;;;7.93;;
7375;SDS011;3728;42.266;24.944;2023-02-08T10:39:30;10.93;;;7.77;;
7375;SDS011;3728;42.266;24.944;2023-02-08T10:42:01;13.43;;;8.33;;
7375;SDS011;3728;42.266;24.944;2023-02-08T10:53:13;11.27;;;8.10;;
7375;SDS011;3728;42.266;24.944;2023-02-08T10:55:54;17.73;;;9.13;;
7375;SDS011;3728;42.266;24.944;2023-02-08T10:58:31;14.53;;;9.53;;
7375;SDS011;3728;42.266;24.944;2023-02-08T11:00:59;16.43;;;10.77;;
7375;SDS011;3728;42.266;24.944;2023-02-08T11:03:28;12.10;;;8.60;;
7375;SDS011;3728;42.266;24.944;2023-02-08T11:05:57;13.70;;;8.47;;
7375;SDS011;3728;42.266;24.944;2023-02-08T11:08:25;12.33;;;7.93;;
7375;SDS011;3728;42.266;24.944;2023-02-08T11:13:40;9.23;;;7.30;;
7375;SDS011;3728;42.266;24.944;2023-02-08T11:16:19;10.20;;;8.20;;
7375;SDS011;3728;42.266;24.944;2023-02-08T11:18:54;14.70;;;8.20;;
7375;SDS011;3728;42.266;24.944;2023-02-08T11:21:27;11.03;;;8.10;;
7375;SDS011;3728;42.266;24.944;2023-02-08T11:27:16;15.43;;;10.70;;
7375;SDS011;3728;42.266;24.944;2023-02-08T11:33:02;10.23;;;8.23;;
7375;SDS011;3728;42.266;24.944;2023-02-08T11:35:53;14.80;;;10.77;;
7375;SDS011;3728;42.266;24.944;2023-02-08T11:38:39;11.23;;;8.43;;
7375;SDS011;3728;42.266;24.944;2023-02-08T11:41:18;12.43;;;9.53;;
7375;SDS011;3728;42.266;24.944;2023-02-08T11:44:00;11.43;;;8.53;;
7375;SDS011;3728;42.266;24.944;2023-02-08T11:46:43;10.47;;;8.43;;
7375;SDS011;3728;42.266;24.944;2023-02-08T11:49:19;11.67;;;8.60;;
7375;SDS011;3728;42.266;24.944;2023-02-08T11:51:50;11.17;;;8.27;;
7375;SDS011;3728;42.266;24.944;2023-02-08T11:57:16;12.07;;;8.43;;
7375;SDS011;3728;42.266;24.944;2023-02-08T12:00:11;12.23;;;9.00;;
7375;SDS011;3728;42.266;24.944;2023-02-08T12:02:48;9.90;;;8.00;;
7375;SDS011;3728;42.266;24.944;2023-02-08T12:05:17;10.27;;;7.87;;
7375;SDS011;3728;42.266;24.944;2023-02-08T12:08:11;9.77;;;6.80;;
7375;SDS011;3728;42.266;24.944;2023-02-08T12:22:24;13.67;;;10.23;;
7375;SDS011;3728;42.266;24.944;2023-02-08T12:34:32;9.20;;;7.60;;
7375;SDS011;3728;42.266;24.944;2023-02-08T12:37:15;11.03;;;9.90;;
7375;SDS011;3728;42.266;24.944;2023-02-08T12:57:52;12.83;;;8.27;;
7375;SDS011;3728;42.266;24.944;2023-02-08T13:00:29;9.67;;;7.30;;
7375;SDS011;3728;42.266;24.944;2023-02-08T13:05:57;9.57;;;7.10;;
7375;SDS011;3728;42.266;24.944;2023-02-08T13:08:47;8.30;;;7.20;;
7375;SDS011;3728;42.266;24.944;2023-02-08T13:11:29;11.93;;;7.60;;
7375;SDS011;3728;42.266;24.944;2023-02-08T13:16:51;10.37;;;8.00;;
7375;SDS011;3728;42.266;24.944;2023-02-08T13:19:26;15.27;;;10.60;;
7375;SDS011;3728;42.266;24.944;2023-02-08T13:22:26;11.83;;;9.53;;
7375;SDS011;3728;42.266;24.944;2023-02-08T13:25:00;20.00;;;12.40;;
7375;SDS011;3728;42.266;24.944;2023-02-08T13:27:44;15.17;;;11.77;;
7375;SDS011;3728;42.266;24.944;2023-02-08T13:30:32;13.27;;;10.73;;
7375;SDS011;3728;42.266;24.944;2023-02-08T13:36:28;10.90;;;8.90;;
7375;SDS011;3728;42.266;24.944;2023-02-08T13:41:59;11.57;;;8.13;;
7375;SDS011;3728;42.266;24.944;2023-02-08T13:44:32;12.60;;;8.43;;
7375;SDS011;3728;42.266;24.944;2023-02-08T13:47:05;10.77;;;8.77;;
7375;SDS011;3728;42.266;24.944;2023-02-08T13:58:01;13.00;;;8.47;;
7375;SDS011;3728;42.266;24.944;2023-02-08T14:03:31;8.63;;;7.57;;
7375;SDS011;3728;42.266;24.944;2023-02-08T14:11:15;11.73;;;9.20;;
7375;SDS011;3728;42.266;24.944;2023-02-08T14:14:12;20.53;;;9.30;;
7375;SDS011;3728;42.266;24.944;2023-02-08T14:19:45;13.07;;;8.67;;
7375;SDS011;3728;42.266;24.944;2023-02-08T14:22:26;17.73;;;10.23;;
7375;SDS011;3728;42.266;24.944;2023-02-08T14:25:24;12.47;;;8.67;;
7375;SDS011;3728;42.266;24.944;2023-02-08T14:30:54;17.03;;;6.53;;
7375;SDS011;3728;42.266;24.944;2023-02-08T14:36:27;7.00;;;5.33;;
7375;SDS011;3728;42.266;24.944;2023-02-08T14:42:08;6.50;;;5.47;;
7375;SDS011;3728;42.266;24.944;2023-02-08T14:47:11;7.40;;;5.23;;
7375;SDS011;3728;42.266;24.944;2023-02-08T14:55:36;8.97;;;7.13;;
7375;SDS011;3728;42.266;24.944;2023-02-08T14:58:30;8.03;;;6.43;;
7375;SDS011;3728;42.266;24.944;2023-02-08T15:01:05;6.07;;;5.33;;
7375;SDS011;3728;42.266;24.944;2023-02-08T15:03:55;11.47;;;8.00;;
7375;SDS011;3728;42.266;24.944;2023-02-08T15:06:40;32.53;;;17.87;;
7375;SDS011;3728;42.266;24.944;2023-02-08T15:09:39;14.70;;;9.57;;
7375;SDS011;3728;42.266;24.944;2023-02-08T15:15:02;125.13;;;98.37;;
7375;SDS011;3728;42.266;24.944;2023-02-08T15:20:21;29.40;;;18.40;;
7375;SDS011;3728;42.266;24.944;2023-02-08T15:28:53;8.47;;;7.00;;
7375;SDS011;3728;42.266;24.944;2023-02-08T15:31:27;12.67;;;6.90;;
7375;SDS011;3728;42.266;24.944;2023-02-08T15:33:59;11.23;;;7.23;;
7375;SDS011;3728;42.266;24.944;2023-02-08T15:36:32;10.80;;;8.20;;
7375;SDS011;3728;42.266;24.944;2023-02-08T15:42:04;9.33;;;7.03;;
7375;SDS011;3728;42.266;24.944;2023-02-08T15:44:44;16.47;;;12.50;;
7375;SDS011;3728;42.266;24.944;2023-02-08T15:47:15;20.57;;;13.63;;
7375;SDS011;3728;42.266;24.944;2023-02-08T15:50:05;20.07;;;13.80;;
7375;SDS011;3728;42.266;24.944;2023-02-08T15:52:43;20.20;;;11.93;;
7375;SDS011;3728;42.266;24.944;2023-02-08T15:55:15;15.80;;;11.37;;
7375;SDS011;3728;42.266;24.944;2023-02-08T15:57:53;13.17;;;9.40;;
7375;SDS011;3728;42.266;24.944;2023-02-08T16:00:27;14.37;;;9.77;;
7375;SDS011;3728;42.266;24.944;2023-02-08T16:03:05;18.00;;;12.03;;
7375;SDS011;3728;42.266;24.944;2023-02-08T16:05:49;24.27;;;16.00;;
7375;SDS011;3728;42.266;24.944;2023-02-08T16:08:32;21.77;;;13.50;;
7375;SDS011;3728;42.266;24.944;2023-02-08T16:11:03;21.83;;;15.07;;
7375;SDS011;3728;42.266;24.944;2023-02-08T16:13:37;26.83;;;14.47;;
7375;SDS011;3728;42.266;24.944;2023-02-08T16:19:22;71.40;;;40.83;;
7375;SDS011;3728;42.266;24.944;2023-02-08T16:25:01;28.13;;;15.93;;
7375;SDS011;3728;42.266;24.944;2023-02-08T16:28:29;23.07;;;13.83;;
7375;SDS011;3728;42.266;24.944;2023-02-08T16:31:25;24.83;;;14.30;;
7375;SDS011;3728;42.266;24.944;2023-02-08T16:36:48;4.40;;;3.57;;
7375;SDS011;3728;42.266;24.944;2023-02-08T16:39:38;9.97;;;5.40;;
7375;SDS011;3728;42.266;24.944;2023-02-08T16:42:31;9.90;;;8.10;;
7375;SDS011;3728;42.266;24.944;2023-02-08T16:45:15;6.40;;;4.43;;
7375;SDS011;3728;42.266;24.944;2023-02-08T16:47:49;7.90;;;6.30;;
7375;SDS011;3728;42.266;24.944;2023-02-08T16:50:24;7.53;;;5.77;;
7375;SDS011;3728;42.266;24.944;2023-02-08T16:52:57;9.87;;;4.63;;
7375;SDS011;3728;42.266;24.944;2023-02-08T16:55:31;7.57;;;5.40;;
7375;SDS011;3728;42.266;24.944;2023-02-08T16:58:02;7.13;;;4.10;;
7375;SDS011;3728;42.266;24.944;2023-02-08T17:00:30;14.67;;;7.77;;
7375;SDS011;3728;42.266;24.944;2023-02-08T17:03:00;24.43;;;12.83;;
7375;SDS011;3728;42.266;24.944;2023-02-08T17:05:30;19.97;;;9.57;;
7375;SDS011;3728;42.266;24.944;2023-02-08T17:08:05;209.93;;;95.13;;
7375;SDS011;3728;42.266;24.944;2023-02-08T17:10:39;141.50;;;64.23;;
7375;SDS011;3728;42.266;24.944;2023-02-08T17:13:08;98.50;;;46.93;;
7375;SDS011;3728;42.266;24.944;2023-02-08T17:15:57;75.80;;;38.33;;
7375;SDS011;3728;42.266;24.944;2023-02-08T17:18:45;83.97;;;41.23;;
7375;SDS011;3728;42.266;24.944;2023-02-08T17:21:14;132.83;;;54.27;;
7375;SDS011;3728;42.266;24.944;2023-02-08T17:23:46;173.37;;;77.80;;
7375;SDS011;3728;42.266;24.944;2023-02-08T17:26:15;113.23;;;57.20;;
7375;SDS011;3728;42.266;24.944;2023-02-08T17:28:45;110.90;;;56.83;;
7375;SDS011;3728;42.266;24.944;2023-02-08T17:31:16;149.60;;;73.83;;
7375;SDS011;3728;42.266;24.944;2023-02-08T17:33:44;197.03;;;100.57;;
7375;SDS011;3728;42.266;24.944;2023-02-08T17:36:13;132.87;;;66.80;;
7375;SDS011;3728;42.266;24.944;2023-02-08T17:38:45;85.60;;;41.97;;
7375;SDS011;3728;42.266;24.944;2023-02-08T17:41:15;100.20;;;43.37;;
7375;SDS011;3728;42.266;24.944;2023-02-08T17:43:48;27.73;;;16.40;;
7375;SDS011;3728;42.266;24.944;2023-02-08T17:46:20;38.17;;;21.47;;
7375;SDS011;3728;42.266;24.944;2023-02-08T17:48:52;54.27;;;26.43;;
7375;SDS011;3728;42.266;24.944;2023-02-08T17:51:24;56.03;;;29.63;;
7375;SDS011;3728;42.266;24.944;2023-02-08T17:53:55;71.23;;;35.57;;
7375;SDS011;3728;42.266;24.944;2023-02-08T17:56:25;112.87;;;52.13;;
7375;SDS011;3728;42.266;24.944;2023-02-08T17:58:56;143.90;;;64.10;;
7375;SDS011;3728;42.266;24.944;2023-02-08T18:01:31;149.93;;;65.63;;
7375;SDS011;3728;42.266;24.944;2023-02-08T18:04:01;159.40;;;71.03;;
7375;SDS011;3728;42.266;24.944;2023-02-08T18:06:35;122.80;;;57.00;;
7375;SDS011;3728;42.266;24.944;2023-02-08T18:09:03;92.37;;;46.57;;
7375;SDS011;3728;42.266;24.944;2023-02-08T18:11:31;85.10;;;42.03;;
7375;SDS011;3728;42.266;24.944;2023-02-08T18:14:03;84.73;;;43.07;;
7375;SDS011;3728;42.266;24.944;2023-02-08T18:16:35;87.37;;;43.40;;
7375;SDS011;3728;42.266;24.944;2023-02-08T18:19:03;78.83;;;40.90;;
7375;SDS011;3728;42.266;24.944;2023-02-08T18:21:32;222.70;;;93.03;;
7375;SDS011;3728;42.266;24.944;2023-02-08T18:24:04;46.87;;;24.50;;
7375;SDS011;3728;42.266;24.944;2023-02-08T18:26:36;25.00;;;14.77;;
7375;SDS011;3728;42.266;24.944;2023-02-08T18:29:09;19.47;;;12.63;;
7375;SDS011;3728;42.266;24.944;2023-02-08T18:31:40;26.20;;;17.43;;
7375;SDS011;3728;42.266;24.944;2023-02-08T18:34:10;24.47;;;14.83;;
7375;SDS011;3728;42.266;24.944;2023-02-08T18:36:43;20.10;;;13.00;;